Time;durP1;ratioP1;P1;durP2;ratioP2;P2;SDS_P1;SDS_P2;PMS_P1;PMS_P2;Temp;Humidity;BMP_temperature;BMP_pressure;BME280_temperature;BME280_humidity;BME280_pressure;Samples;Min_cycle;Max_cycle;Signal;HPM_P1;HPM_P2
2023/05/08 04:18:29;;;;;;;10.23;9.15;;;16.70;71.50;;;;;;5193668;24;20066;-71
2023/05/08 04:20:56;;;;;;;13.10;9.60;;;16.70;70.50;;;;;;4813826;29;20043;-71
2023/05/08 04:23:24;;;;;;;12.13;10.38;;;16.70;70.00;;;;;;4820160;29;20118;-71
2023/05/08 04:25:51;;;;;;;17.48;10.13;;;16.70;69.80;;;;;;4809875;29;20092;-74
2023/05/08 04:28:26;;;;;;;13.95;11.05;;;16.60;69.50;;;;;;4821782;29;20051;-74
2023/05/08 04:30:55;;;;;;;12.88;10.57;;;16.60;69.30;;;;;;4812992;29;20122;-72
2023/05/08 04:33:21;;;;;;;19.13;12.02;;;16.60;69.10;;;;;;4824074;29;20104;-72
2023/05/08 04:35:48;;;;;;;12.45;10.93;;;16.60;69.00;;;;;;4817362;29;20093;-69
2023/05/08 04:38:13;;;;;;;14.60;11.13;;;16.60;68.80;;;;;;4809214;29;20478;-74
2023/05/08 04:40:39;;;;;;;13.55;10.60;;;16.50;69.00;;;;;;4810273;29;20039;-75
2023/05/08 04:43:05;;;;;;;16.00;11.27;;;16.50;69.00;;;;;;4809277;29;20493;-75
2023/05/08 04:45:31;;;;;;;16.05;10.85;;;16.50;69.10;;;;;;4809277;29;20470;-74
2023/05/08 04:47:56;;;;;;;16.00;10.93;;;16.40;68.80;;;;;;4826299;29;20047;-74
2023/05/08 04:50:22;;;;;;;14.88;9.88;;;16.40;68.80;;;;;;4813914;29;20390;-75
2023/05/08 04:52:48;;;;;;;12.38;10.10;;;16.30;69.00;;;;;;4810681;29;20046;-75
2023/05/08 04:55:14;;;;;;;20.08;10.50;;;16.40;68.80;;;;;;4826871;29;20058;-74
2023/05/08 04:57:39;;;;;;;14.88;9.57;;;16.30;69.40;;;;;;4818982;29;20050;-74
2023/05/08 05:00:06;;;;;;;16.30;11.10;;;16.40;70.20;;;;;;4823817;29;20381;-75
2023/05/08 05:02:31;;;;;;;18.90;10.57;;;16.40;70.60;;;;;;4809138;29;20061;-77
2023/05/08 05:05:00;;;;;;;21.98;11.02;;;16.50;70.80;;;;;;4825818;29;20458;-74
2023/05/08 05:07:25;;;;;;;25.50;10.82;;;16.60;71.20;;;;;;4819218;29;20078;-74
2023/05/08 05:09:51;;;;;;;18.25;11.23;;;16.60;71.00;;;;;;4803867;29;20188;-74
2023/05/08 05:12:17;;;;;;;13.25;11.77;;;16.60;71.40;;;;;;4808304;29;20473;-75
2023/05/08 05:14:42;;;;;;;19.35;11.77;;;16.70;70.90;;;;;;4815622;29;20038;-74
2023/05/08 05:17:08;;;;;;;14.80;11.43;;;16.70;69.90;;;;;;4826196;29;20046;-76
2023/05/08 05:19:34;;;;;;;26.15;11.80;;;16.70;69.90;;;;;;4826559;29;20198;-73
2023/05/08 05:21:59;;;;;;;19.50;11.20;;;16.60;69.90;;;;;;4819058;29;20366;-75
2023/05/08 05:24:25;;;;;;;20.88;11.93;;;16.70;71.00;;;;;;4808745;29;20046;-74
2023/05/08 05:26:51;;;;;;;23.42;11.90;;;16.70;70.70;;;;;;4825387;29;20060;-72
2023/05/08 05:29:16;;;;;;;24.38;12.65;;;16.70;70.90;;;;;;4826170;29;20061;-73
2023/05/08 05:31:42;;;;;;;14.45;11.60;;;16.80;70.90;;;;;;4814418;29;20144;-75
2023/05/08 05:34:08;;;;;;;20.33;11.52;;;16.80;69.10;;;;;;4803393;29;20061;-74
2023/05/08 05:36:34;;;;;;;19.88;11.38;;;16.70;69.10;;;;;;4808655;29;20146;-73
2023/05/08 05:39:00;;;;;;;16.08;11.05;;;16.70;69.10;;;;;;4808865;29;20511;-73
2023/05/08 05:41:25;;;;;;;12.68;10.45;;;16.70;69.30;;;;;;4808761;29;20439;-75
2023/05/08 05:43:51;;;;;;;19.75;10.73;;;16.70;69.30;;;;;;4808200;29;20130;-73
2023/05/08 05:46:17;;;;;;;25.23;11.45;;;16.60;69.50;;;;;;4809493;29;20083;-73
2023/05/08 05:48:43;;;;;;;20.63;12.18;;;16.60;69.70;;;;;;4823820;29;20150;-73
2023/05/08 05:51:09;;;;;;;19.75;11.68;;;16.80;68.40;;;;;;4825642;29;20466;-80
2023/05/08 05:53:34;;;;;;;24.58;14.73;;;16.70;67.00;;;;;;4794701;29;20039;-75
2023/05/08 05:56:00;;;;;;;19.98;12.20;;;16.60;66.60;;;;;;4808178;29;20391;-73
2023/05/08 05:58:27;;;;;;;13.57;11.43;;;16.60;66.60;;;;;;4812080;29;20042;-75
2023/05/08 06:00:53;;;;;;;21.13;12.40;;;16.40;66.30;;;;;;4808170;29;20130;-73
2023/05/08 06:03:18;;;;;;;15.18;11.95;;;16.40;66.80;;;;;;4808049;29;20168;-70
2023/05/08 06:05:46;;;;;;;13.82;12.32;;;16.30;66.90;;;;;;4815023;29;20123;-73
2023/05/08 06:08:12;;;;;;;13.57;11.10;;;16.30;67.00;;;;;;4791600;29;20069;-70
2023/05/08 06:10:38;;;;;;;13.57;12.18;;;16.30;67.50;;;;;;4803905;29;20051;-71
2023/05/08 06:13:03;;;;;;;18.23;11.98;;;16.30;67.80;;;;;;4805733;29;20055;-73
2023/05/08 06:15:29;;;;;;;15.05;10.55;;;16.30;67.80;;;;;;4808036;29;20051;-72
2023/05/08 06:17:55;;;;;;;15.32;10.48;;;16.30;67.90;;;;;;4807560;29;20481;-75
2023/05/08 06:20:21;;;;;;;19.90;11.45;;;16.40;68.00;;;;;;4820265;29;20061;-71
2023/05/08 06:22:46;;;;;;;19.85;11.32;;;16.40;67.90;;;;;;4825809;29;20049;-71
2023/05/08 06:25:13;;;;;;;17.15;10.63;;;16.50;68.10;;;;;;4824670;29;20050;-72
2023/05/08 06:27:38;;;;;;;14.25;10.10;;;16.50;68.20;;;;;;4825752;29;20413;-72
2023/05/08 06:30:09;;;;;;;12.50;10.38;;;16.60;68.20;;;;;;4825941;29;20050;-72
2023/05/08 06:32:35;;;;;;;13.27;10.48;;;16.60;68.30;;;;;;4825934;29;20410;-72
2023/05/08 06:35:01;;;;;;;11.60;10.13;;;16.70;68.30;;;;;;4825644;29;20125;-72
2023/05/08 06:37:26;;;;;;;13.10;9.90;;;16.70;68.30;;;;;;4825593;29;20051;-71
2023/05/08 06:39:52;;;;;;;10.45;9.20;;;16.70;68.30;;;;;;4825843;29;20046;-73
2023/05/08 06:42:18;;;;;;;12.13;9.68;;;16.80;68.30;;;;;;4825370;29;20603;-72
2023/05/08 06:44:44;;;;;;;9.63;8.63;;;16.80;68.20;;;;;;4825498;29;20050;-71
2023/05/08 06:47:09;;;;;;;10.55;9.38;;;16.80;68.20;;;;;;4825520;29;20102;-73
2023/05/08 06:49:36;;;;;;;12.27;9.48;;;16.80;68.10;;;;;;4825656;29;20087;-73
2023/05/08 06:52:01;;;;;;;13.43;9.10;;;16.90;68.10;;;;;;4821912;29;20054;-72
2023/05/08 06:54:27;;;;;;;12.52;10.23;;;16.90;68.00;;;;;;4825049;29;20107;-73
2023/05/08 06:56:53;;;;;;;11.65;9.63;;;16.90;67.90;;;;;;4825489;29;20050;-73
2023/05/08 06:59:20;;;;;;;10.98;9.82;;;16.90;68.00;;;;;;4824179;29;20356;-74
2023/05/08 07:01:45;;;;;;;13.48;9.80;;;16.90;68.30;;;;;;4823913;29;20424;-73
2023/05/08 07:04:11;;;;;;;18.67;9.68;;;17.00;68.40;;;;;;4822912;29;20111;-73
2023/05/08 07:06:37;;;;;;;13.73;10.55;;;17.00;68.50;;;;;;4824101;29;20488;-74
2023/05/08 07:09:03;;;;;;;12.30;10.98;;;17.00;68.50;;;;;;4825885;29;20069;-73
2023/05/08 07:11:29;;;;;;;11.75;10.63;;;17.10;68.30;;;;;;4809591;29;20336;-74
2023/05/08 07:13:54;;;;;;;12.63;11.43;;;17.10;68.10;;;;;;4825850;29;20146;-73
2023/05/08 07:16:20;;;;;;;11.88;10.80;;;17.00;67.80;;;;;;4809581;29;20050;-73
2023/05/08 07:18:46;;;;;;;12.07;10.98;;;17.00;67.60;;;;;;4822999;29;20449;-72
2023/05/08 07:21:12;;;;;;;11.60;10.40;;;17.00;67.70;;;;;;4809495;29;20082;-74
2023/05/08 07:23:37;;;;;;;11.25;10.07;;;17.00;68.00;;;;;;4825916;29;20058;-73
2023/05/08 07:26:03;;;;;;;10.88;9.77;;;17.10;68.20;;;;;;4824659;29;20046;-72
2023/05/08 07:28:29;;;;;;;14.13;9.30;;;17.10;68.20;;;;;;4825627;29;20055;-73
2023/05/08 07:30:57;;;;;;;10.55;9.55;;;17.20;68.40;;;;;;4825313;29;20054;-73
2023/05/08 07:33:23;;;;;;;10.02;9.02;;;17.20;68.30;;;;;;4825449;29;20450;-73
2023/05/08 07:35:48;;;;;;;9.65;8.68;;;17.30;68.30;;;;;;4827269;29;20086;-74
2023/05/08 07:38:14;;;;;;;9.20;8.25;;;17.40;68.40;;;;;;4828319;29;20089;-75
2023/05/08 07:40:40;;;;;;;9.30;8.40;;;17.40;68.20;;;;;;4828694;29;20050;-73
2023/05/08 07:43:06;;;;;;;8.95;8.07;;;17.40;68.10;;;;;;4827420;29;20446;-77
2023/05/08 07:45:31;;;;;;;8.90;8.05;;;17.40;68.10;;;;;;4822739;29;20113;-77
2023/05/08 07:47:58;;;;;;;8.27;7.30;;;17.50;68.40;;;;;;4813801;29;20050;-75
2023/05/08 07:50:25;;;;;;;8.60;7.78;;;17.40;68.30;;;;;;4805891;29;20070;-74
2023/05/08 07:52:51;;;;;;;7.88;7.07;;;17.50;68.40;;;;;;4828008;29;20058;-72
2023/05/08 07:55:18;;;;;;;7.78;7.07;;;17.50;68.50;;;;;;4828438;29;20133;-74
2023/05/08 07:57:44;;;;;;;8.10;7.28;;;17.50;68.40;;;;;;4818331;29;20138;-74
2023/05/08 08:00:12;;;;;;;6.90;6.30;;;17.50;68.80;;;;;;4828249;29;20134;-73
2023/05/08 08:02:38;;;;;;;7.47;6.78;;;17.50;68.80;;;;;;4828510;29;20138;-74
2023/05/08 08:05:05;;;;;;;8.02;7.20;;;17.50;68.70;;;;;;4828132;29;20129;-73
2023/05/08 08:07:33;;;;;;;7.57;6.88;;;17.50;68.90;;;;;;4828381;29;20081;-74
2023/05/08 08:10:00;;;;;;;7.38;6.68;;;17.40;69.10;;;;;;4828090;29;20050;-75
2023/05/08 08:12:26;;;;;;;7.90;6.70;;;17.50;69.20;;;;;;4817043;29;20490;-73
2023/05/08 08:14:52;;;;;;;10.73;7.97;;;17.40;69.20;;;;;;4828290;29;20069;-72
2023/05/08 08:17:21;;;;;;;10.57;9.45;;;17.50;69.00;;;;;;4827899;29;20054;-80
2023/05/08 08:19:49;;;;;;;11.60;10.40;;;17.50;68.40;;;;;;4796752;29;20062;-75
2023/05/08 08:22:15;;;;;;;14.82;10.02;;;17.40;68.30;;;;;;4827858;29;20125;-75
2023/05/08 08:24:41;;;;;;;11.48;9.43;;;17.40;68.30;;;;;;4828237;29;20465;-73
2023/05/08 08:27:07;;;;;;;9.73;8.75;;;17.40;68.40;;;;;;4827977;29;20123;-74
2023/05/08 08:29:33;;;;;;;9.85;8.77;;;17.40;68.50;;;;;;4812377;29;20446;-73
2023/05/08 08:31:59;;;;;;;14.93;9.55;;;17.50;68.90;;;;;;4823968;29;20054;-73
2023/05/08 08:34:25;;;;;;;11.48;8.90;;;17.40;69.30;;;;;;4821184;29;20089;-73
2023/05/08 08:36:50;;;;;;;11.43;8.27;;;17.50;69.60;;;;;;4824456;29;20443;-75
2023/05/08 08:39:16;;;;;;;10.05;8.45;;;17.50;70.00;;;;;;4811819;29;20110;-74
2023/05/08 08:41:42;;;;;;;12.25;8.30;;;17.50;69.90;;;;;;4811886;29;20050;-74
2023/05/08 08:44:08;;;;;;;10.57;8.20;;;17.50;69.70;;;;;;4810984;29;20054;-75
2023/05/08 08:46:37;;;;;;;12.05;8.80;;;17.50;69.70;;;;;;4810883;29;20046;-73
2023/05/08 08:49:04;;;;;;;9.52;7.70;;;17.50;69.80;;;;;;4827414;29;20050;-73
2023/05/08 08:51:49;;;;;;;10.43;8.00;;;17.50;69.80;;;;;;4828096;29;20118;-74
2023/05/08 08:54:23;;;;;;;11.13;7.75;;;17.50;70.00;;;;;;4827824;29;20202;-74
2023/05/08 08:56:50;;;;;;;8.27;7.47;;;17.60;70.60;;;;;;4811449;29;20117;-75
2023/05/08 08:59:17;;;;;;;9.13;7.32;;;17.60;70.00;;;;;;4811341;29;20062;-73
2023/05/08 09:01:47;;;;;;;7.70;6.97;;;17.60;70.00;;;;;;4827273;29;20050;-76
2023/05/08 09:04:13;;;;;;;8.00;7.05;;;17.60;70.00;;;;;;4827383;29;20054;-74
2023/05/08 09:06:40;;;;;;;8.52;7.32;;;17.60;70.00;;;;;;4811456;29;20058;-74
2023/05/08 09:09:06;;;;;;;9.05;7.05;;;17.60;70.00;;;;;;4827417;29;20054;-73
2023/05/08 09:11:32;;;;;;;7.50;6.35;;;17.60;69.90;;;;;;4827387;29;20050;-72
2023/05/08 09:13:58;;;;;;;11.82;6.95;;;17.60;70.00;;;;;;4827375;29;20057;-73
2023/05/08 09:16:24;;;;;;;7.15;6.45;;;17.70;70.00;;;;;;4826757;29;20046;-73
2023/05/08 09:18:50;;;;;;;7.93;6.03;;;17.70;70.00;;;;;;4811264;29;20462;-74
2023/05/08 09:21:16;;;;;;;8.55;6.60;;;17.70;70.10;;;;;;4795886;29;20149;-72
2023/05/08 09:24:02;;;;;;;6.72;6.13;;;17.70;70.10;;;;;;4827126;29;20050;-74
2023/05/08 09:26:36;;;;;;;5.97;5.47;;;17.70;70.20;;;;;;4811119;29;20515;-74
2023/05/08 09:29:13;;;;;;;6.65;6.05;;;17.70;70.20;;;;;;4826834;29;20093;-73
2023/05/08 09:31:47;;;;;;;6.53;5.90;;;17.70;70.10;;;;;;4827018;29;20086;-74
2023/05/08 09:34:31;;;;;;;7.05;6.25;;;17.80;70.10;;;;;;4811147;29;20085;-75
2023/05/08 09:37:03;;;;;;;11.35;7.60;;;17.70;70.10;;;;;;4826463;29;20054;-75
2023/05/08 09:39:29;;;;;;;9.82;8.00;;;17.80;70.30;;;;;;4811300;29;20046;-73
2023/05/08 09:41:59;;;;;;;10.02;8.48;;;17.70;70.40;;;;;;4827178;29;20062;-73
2023/05/08 09:44:25;;;;;;;10.63;8.57;;;17.80;70.50;;;;;;4805676;29;20069;-73
2023/05/08 09:46:51;;;;;;;10.05;8.13;;;17.80;70.50;;;;;;4816305;29;20050;-73
2023/05/08 09:49:17;;;;;;;9.35;7.93;;;17.80;70.60;;;;;;4817055;29;20143;-73
2023/05/08 09:51:53;;;;;;;10.05;7.55;;;17.80;70.70;;;;;;4819327;29;20053;-73
2023/05/08 09:54:19;;;;;;;14.98;8.88;;;17.80;70.80;;;;;;4824026;29;20150;-72
2023/05/08 09:56:44;;;;;;;14.63;8.52;;;17.80;70.70;;;;;;4808602;29;20116;-74
2023/05/08 09:59:27;;;;;;;14.82;9.52;;;17.80;70.70;;;;;;4826580;29;20381;-72
2023/05/08 10:01:53;;;;;;;15.43;10.27;;;17.80;70.70;;;;;;4824027;29;20046;-75
2023/05/08 10:04:32;;;;;;;15.43;9.77;;;17.80;70.60;;;;;;4824962;29;20050;-73
2023/05/08 10:06:58;;;;;;;16.63;11.32;;;17.80;70.60;;;;;;4827107;29;20043;-75
2023/05/08 10:09:24;;;;;;;14.82;13.25;;;17.90;70.70;;;;;;4811045;29;20461;-75
2023/05/08 10:11:52;;;;;;;21.15;13.13;;;17.80;70.70;;;;;;4818606;29;20046;-73
2023/05/08 10:14:19;;;;;;;16.08;14.38;;;17.80;70.70;;;;;;4808340;29;20398;-72
2023/05/08 10:16:47;;;;;;;17.88;15.93;;;17.80;70.80;;;;;;4818545;29;20115;-74
2023/05/08 10:19:15;;;;;;;15.40;13.80;;;17.80;70.90;;;;;;4826310;29;20494;-73
2023/05/08 10:21:46;;;;;;;13.52;11.55;;;17.80;70.90;;;;;;4826330;29;20050;-75
2023/05/08 10:24:20;;;;;;;14.18;11.02;;;17.90;71.10;;;;;;4825871;29;20130;-73
2023/05/08 10:27:18;;;;;;;14.60;12.95;;;17.90;70.90;;;;;;4826255;29;20065;-74
2023/05/08 10:29:51;;;;;;;15.05;12.98;;;17.80;70.90;;;;;;4826374;29;20466;-74
2023/05/08 10:32:19;;;;;;;16.45;14.05;;;17.80;70.90;;;;;;4826301;29;20058;-73
2023/05/08 10:34:51;;;;;;;21.65;14.70;;;17.90;71.60;;;;;;4825978;29;20050;-73
2023/05/08 10:37:18;;;;;;;16.33;13.85;;;17.80;71.20;;;;;;4826000;29;20058;-72
2023/05/08 10:39:45;;;;;;;17.95;13.35;;;17.80;71.20;;;;;;4826120;29;20418;-74
2023/05/08 10:42:14;;;;;;;14.77;13.02;;;17.90;71.30;;;;;;4809995;29;20062;-75
2023/05/08 10:44:40;;;;;;;12.80;11.60;;;17.90;71.20;;;;;;4810013;29;20439;-74
2023/05/08 10:47:33;;;;;;;12.65;10.77;;;17.90;71.20;;;;;;4826371;29;20066;-74
2023/05/08 10:50:11;;;;;;;17.98;11.75;;;17.90;71.40;;;;;;4825601;29;20470;-73
2023/05/08 10:53:08;;;;;;;19.33;10.43;;;17.90;71.30;;;;;;4825724;29;20428;-72
2023/05/08 10:55:40;;;;;;;18.52;11.98;;;18.00;71.50;;;;;;4818514;29;20481;-73
2023/05/08 10:58:29;;;;;;;21.75;12.65;;;18.00;71.40;;;;;;4826147;29;20065;-74
2023/05/08 11:01:03;;;;;;;18.73;15.30;;;18.00;71.50;;;;;;4809799;29;20054;-73
2023/05/08 11:03:30;;;;;;;20.15;15.35;;;18.00;71.80;;;;;;4825969;29;20058;-72
2023/05/08 11:05:57;;;;;;;18.90;16.05;;;18.00;72.00;;;;;;4826456;29;20359;-73
2023/05/08 11:08:26;;;;;;;17.40;14.85;;;18.00;72.10;;;;;;4825282;29;20077;-74
2023/05/08 11:10:58;;;;;;;17.63;14.75;;;18.00;72.30;;;;;;4827217;29;20089;-74
2023/05/08 11:13:35;;;;;;;16.30;14.10;;;18.00;72.20;;;;;;4828714;29;20458;-73
2023/05/08 11:16:02;;;;;;;18.83;14.10;;;18.00;72.20;;;;;;4829162;29;20065;-74
2023/05/08 11:18:28;;;;;;;14.70;13.18;;;18.00;72.80;;;;;;4813323;29;20481;-74
2023/05/08 11:20:56;;;;;;;22.33;13.73;;;18.00;72.20;;;;;;4829023;29;20077;-71
2023/05/08 11:23:26;;;;;;;22.00;13.02;;;18.10;72.50;;;;;;4828437;29;20086;-72
2023/05/08 11:26:05;;;;;;;17.80;12.27;;;18.10;72.40;;;;;;4826694;29;20050;-73
2023/05/08 11:28:36;;;;;;;18.23;12.48;;;18.10;72.30;;;;;;4829080;29;20137;-73
2023/05/08 11:31:03;;;;;;;15.25;10.60;;;18.10;72.20;;;;;;4813226;29;20493;-72
2023/05/08 11:33:33;;;;;;;25.15;14.35;;;18.10;72.30;;;;;;4828793;29;20085;-74
2023/05/08 11:36:11;;;;;;;23.23;12.32;;;18.10;72.20;;;;;;4828956;29;20122;-74
2023/05/08 11:38:37;;;;;;;16.60;12.50;;;18.10;72.10;;;;;;4828786;29;20152;-74
2023/05/08 11:41:20;;;;;;;14.10;11.10;;;18.20;72.20;;;;;;4813004;29;20116;-73
2023/05/08 11:44:08;;;;;;;19.05;11.07;;;18.10;72.20;;;;;;4828372;29;20046;-74
2023/05/08 11:46:49;;;;;;;13.77;11.00;;;18.10;72.10;;;;;;4812886;29;20069;-74
2023/05/08 11:49:16;;;;;;;15.00;9.32;;;18.10;72.20;;;;;;4827201;29;20121;-74
2023/05/08 11:51:46;;;;;;;17.77;9.35;;;18.20;72.30;;;;;;4815637;29;20050;-73
2023/05/08 11:54:18;;;;;;;13.25;9.13;;;18.10;72.30;;;;;;4810442;29;20080;-72
2023/05/08 11:56:53;;;;;;;15.65;10.52;;;18.20;72.50;;;;;;4810753;29;20378;-73
2023/05/08 11:59:19;;;;;;;14.48;10.18;;;18.10;72.50;;;;;;4810289;29;20501;-71
2023/05/08 12:01:47;;;;;;;13.30;9.95;;;18.10;72.60;;;;;;4810339;29;20089;-75
2023/05/08 12:04:13;;;;;;;15.98;11.90;;;18.10;72.60;;;;;;4810151;29;20058;-72
2023/05/08 12:06:40;;;;;;;13.40;11.02;;;18.10;72.60;;;;;;4820409;29;20462;-73
2023/05/08 12:09:14;;;;;;;15.13;10.82;;;18.20;72.70;;;;;;4812310;29;20580;-73
2023/05/08 12:11:42;;;;;;;16.10;10.82;;;18.20;72.60;;;;;;4812321;29;20054;-73
2023/05/08 12:14:09;;;;;;;13.20;11.00;;;18.20;72.50;;;;;;4828242;29;20086;-71
2023/05/08 12:16:38;;;;;;;12.40;10.57;;;18.20;72.50;;;;;;4828228;29;20061;-74
2023/05/08 12:19:10;;;;;;;12.38;9.88;;;18.20;72.40;;;;;;4812713;29;20054;-74
2023/05/08 12:21:35;;;;;;;11.25;10.02;;;18.20;72.40;;;;;;4811273;29;20055;-72
2023/05/08 12:24:15;;;;;;;13.18;9.48;;;18.20;72.30;;;;;;4812174;29;20470;-72
2023/05/08 12:26:41;;;;;;;10.90;9.13;;;18.20;72.30;;;;;;4811920;29;20050;-73
2023/05/08 12:29:08;;;;;;;10.73;8.85;;;18.20;72.20;;;;;;4812090;29;20111;-72
2023/05/08 12:31:35;;;;;;;9.88;8.60;;;18.20;72.20;;;;;;4812158;29;20054;-73
2023/05/08 12:34:05;;;;;;;11.25;8.52;;;18.20;72.20;;;;;;4828030;29;20366;-73
2023/05/08 12:36:37;;;;;;;11.57;8.10;;;18.20;72.10;;;;;;4827268;29;20042;-73
2023/05/08 12:39:33;;;;;;;12.75;8.40;;;18.20;72.10;;;;;;4827892;29;20054;-74
2023/05/08 12:41:59;;;;;;;10.85;9.23;;;18.20;72.00;;;;;;4826937;29;20073;-74
2023/05/08 12:44:26;;;;;;;10.20;8.32;;;18.20;72.00;;;;;;4810692;29;20133;-74
2023/05/08 12:46:53;;;;;;;13.20;8.90;;;18.20;72.00;;;;;;4827269;29;20058;-73
2023/05/08 12:49:27;;;;;;;11.40;7.57;;;18.20;72.60;;;;;;4810600;29;20050;-72
2023/05/08 12:52:07;;;;;;;12.52;8.68;;;18.20;72.90;;;;;;4809567;29;20090;-73
2023/05/08 12:54:35;;;;;;;13.13;8.63;;;18.20;73.20;;;;;;4821884;29;20165;-74
2023/05/08 12:57:00;;;;;;;13.30;8.20;;;18.20;73.50;;;;;;4827030;29;20042;-73
2023/05/08 12:59:32;;;;;;;17.25;8.95;;;18.20;73.60;;;;;;4815088;29;20123;-73
2023/05/08 13:01:58;;;;;;;14.30;8.00;;;18.30;73.70;;;;;;4808868;29;20597;-74
2023/05/08 13:04:24;;;;;;;18.05;8.13;;;18.30;73.70;;;;;;4809426;29;20085;-73
2023/05/08 13:06:54;;;;;;;20.63;8.48;;;18.30;73.80;;;;;;4815668;29;20054;-74
2023/05/08 13:09:21;;;;;;;13.07;8.32;;;18.30;73.90;;;;;;4827152;29;20054;-74
2023/05/08 13:11:47;;;;;;;13.23;7.88;;;18.30;74.00;;;;;;4827376;29;20061;-73
2023/05/08 13:14:13;;;;;;;17.42;7.22;;;18.30;74.00;;;;;;4827024;29;20125;-72
2023/05/08 13:16:43;;;;;;;12.55;7.53;;;18.30;74.00;;;;;;4827737;29;20046;-73
2023/05/08 13:19:09;;;;;;;12.43;7.40;;;18.30;74.10;;;;;;4825332;29;20069;-74
2023/05/08 13:21:35;;;;;;;14.88;7.57;;;18.30;74.10;;;;;;4822883;29;20062;-74
2023/05/08 13:24:00;;;;;;;13.95;7.28;;;18.30;74.80;;;;;;4808962;29;20470;-73
2023/05/08 13:26:26;;;;;;;13.38;7.28;;;18.30;74.20;;;;;;4809024;29;20180;-72
2023/05/08 13:28:52;;;;;;;17.80;8.10;;;18.30;74.30;;;;;;4809784;29;20054;-73
2023/05/08 13:31:18;;;;;;;14.30;8.50;;;18.30;74.30;;;;;;4826803;29;20042;-74
2023/05/08 13:33:43;;;;;;;12.52;7.78;;;18.30;74.40;;;;;;4826933;29;20446;-72
2023/05/08 13:36:09;;;;;;;16.70;8.57;;;18.30;74.40;;;;;;4827775;29;20141;-74
2023/05/08 13:38:35;;;;;;;18.15;7.95;;;18.30;74.50;;;;;;4825081;29;20462;-74
2023/05/08 13:41:00;;;;;;;20.95;8.52;;;18.30;74.50;;;;;;4826788;29;20051;-73
2023/05/08 13:43:26;;;;;;;12.45;7.32;;;18.30;74.70;;;;;;4816196;29;20050;-74
2023/05/08 13:45:52;;;;;;;23.42;11.82;;;18.30;74.70;;;;;;4793251;29;20129;-73
2023/05/08 13:48:18;;;;;;;23.17;13.75;;;18.30;75.00;;;;;;4808553;29;20055;-74
2023/05/08 13:50:44;;;;;;;26.13;19.67;;;18.40;75.30;;;;;;4809029;29;20055;-74
2023/05/08 13:53:10;;;;;;;26.08;21.52;;;18.40;75.40;;;;;;4809873;29;20133;-75
2023/05/08 13:55:36;;;;;;;29.90;21.55;;;18.40;75.60;;;;;;4826596;29;20064;-73
2023/05/08 13:58:01;;;;;;;29.75;22.10;;;18.40;75.60;;;;;;4826968;29;20054;-73
2023/05/08 14:00:27;;;;;;;29.00;24.42;;;18.40;75.70;;;;;;4826630;29;20046;-72
2023/05/08 14:02:53;;;;;;;31.13;26.30;;;18.50;75.70;;;;;;4826745;29;20050;-72
2023/05/08 14:05:19;;;;;;;31.45;27.90;;;18.50;75.80;;;;;;4826770;29;20523;-72
2023/05/08 14:07:45;;;;;;;31.67;28.23;;;18.50;75.70;;;;;;4825979;29;20134;-72
2023/05/08 14:10:11;;;;;;;34.22;30.70;;;18.50;75.90;;;;;;4826715;29;20465;-71
2023/05/08 14:12:36;;;;;;;32.88;29.10;;;18.60;76.10;;;;;;4826607;29;20043;-75
2023/05/08 14:15:06;;;;;;;33.17;29.42;;;18.60;76.00;;;;;;4825681;29;20054;-73
2023/05/08 14:17:31;;;;;;;32.17;28.60;;;18.60;76.10;;;;;;4825997;29;20066;-72
2023/05/08 14:19:58;;;;;;;34.13;30.60;;;18.60;76.10;;;;;;4825769;29;20146;-72
2023/05/08 14:22:23;;;;;;;34.42;30.40;;;18.60;76.20;;;;;;4817895;29;20046;-71
2023/05/08 14:24:49;;;;;;;32.45;29.13;;;18.60;76.20;;;;;;4807822;29;20122;-73
2023/05/08 14:27:15;;;;;;;33.55;28.95;;;18.60;76.30;;;;;;4791596;29;20114;-73
2023/05/08 14:29:41;;;;;;;32.90;29.45;;;18.60;76.30;;;;;;4807837;29;20047;-72
2023/05/08 14:32:08;;;;;;;32.85;29.23;;;18.60;76.40;;;;;;4808033;29;20054;-72
2023/05/08 14:34:34;;;;;;;32.13;28.92;;;18.70;76.50;;;;;;4808194;29;20063;-72
2023/05/08 14:36:59;;;;;;;32.30;29.05;;;18.60;76.40;;;;;;4808068;29;20058;-71
2023/05/08 14:39:25;;;;;;;33.05;29.67;;;18.60;76.40;;;;;;4809044;29;20058;-77
2023/05/08 14:41:51;;;;;;;32.05;28.67;;;18.70;76.40;;;;;;4815171;29;20054;-72
2023/05/08 14:44:17;;;;;;;33.20;29.58;;;18.70;76.30;;;;;;4825637;29;20447;-74
2023/05/08 14:46:43;;;;;;;32.65;26.83;;;18.70;76.30;;;;;;4828928;29;20167;-70
2023/05/08 14:49:08;;;;;;;39.78;29.05;;;18.60;76.30;;;;;;4813186;29;20089;-71
2023/05/08 14:51:34;;;;;;;35.42;28.40;;;18.70;76.40;;;;;;4811502;29;20146;-72
2023/05/08 14:54:00;;;;;;;48.22;37.80;;;18.70;76.60;;;;;;4817909;29;20046;-72
2023/05/08 14:56:26;;;;;;;44.03;37.75;;;18.70;77.10;;;;;;4813479;29;20042;-72
2023/05/08 14:58:54;;;;;;;41.90;37.13;;;18.80;77.70;;;;;;4829773;29;20111;-74
2023/05/08 15:01:21;;;;;;;45.35;35.70;;;18.70;78.30;;;;;;4828818;29;20449;-72
2023/05/08 15:03:51;;;;;;;39.03;34.92;;;18.80;79.20;;;;;;4824946;29;20520;-75
2023/05/08 15:06:22;;;;;;;38.50;34.33;;;18.80;79.20;;;;;;4811390;29;20119;-71
2023/05/08 15:08:48;;;;;;;43.47;34.88;;;18.80;79.40;;;;;;4822778;29;20501;-77
2023/05/08 15:11:14;;;;;;;42.45;35.25;;;18.90;79.60;;;;;;4824193;29;20366;-72
2023/05/08 15:13:41;;;;;;;55.83;38.15;;;18.90;79.70;;;;;;4811593;29;20102;-72
2023/05/08 15:16:06;;;;;;;46.40;35.50;;;18.90;79.60;;;;;;4826907;29;20054;-76
2023/05/08 15:18:32;;;;;;;47.45;35.40;;;18.90;79.50;;;;;;4829065;29;20118;-72
2023/05/08 15:20:58;;;;;;;48.10;37.25;;;18.90;79.40;;;;;;4829676;29;20062;-71
2023/05/08 15:23:25;;;;;;;48.38;39.78;;;18.90;79.40;;;;;;4828590;29;20053;-73
2023/05/08 15:25:51;;;;;;;50.35;38.53;;;18.90;79.90;;;;;;4828891;29;20054;-75
2023/05/08 15:28:16;;;;;;;42.60;37.78;;;18.90;80.00;;;;;;4828980;29;20061;-76
2023/05/08 15:30:45;;;;;;;43.38;38.47;;;18.90;80.10;;;;;;4829340;29;20077;-77
2023/05/08 15:33:12;;;;;;;40.67;35.92;;;18.90;79.80;;;;;;4828573;29;20050;-80
2023/05/08 15:35:37;;;;;;;44.88;37.00;;;18.90;79.70;;;;;;4829102;29;20046;-74
2023/05/08 15:38:06;;;;;;;46.53;36.17;;;18.90;79.50;;;;;;4828656;29;20065;-74
2023/05/08 15:40:32;;;;;;;43.30;36.70;;;18.90;79.40;;;;;;4828678;29;20827;-72
2023/05/08 15:42:58;;;;;;;44.72;36.65;;;18.90;79.50;;;;;;4828693;29;20119;-73
2023/05/08 15:45:24;;;;;;;41.22;36.75;;;18.90;79.70;;;;;;4828425;29;20439;-73
2023/05/08 15:47:50;;;;;;;44.03;38.47;;;18.90;79.90;;;;;;4828734;29;20046;-72
2023/05/08 15:50:15;;;;;;;49.35;39.75;;;18.90;79.90;;;;;;4828845;29;20103;-72
2023/05/08 15:52:41;;;;;;;45.20;37.90;;;18.90;79.90;;;;;;4828596;29;20332;-72
2023/05/08 15:55:07;;;;;;;46.88;39.78;;;18.90;79.90;;;;;;4828315;29;20473;-72
2023/05/08 15:57:33;;;;;;;51.92;36.95;;;18.90;79.80;;;;;;4828394;29;20093;-73
2023/05/08 15:59:58;;;;;;;48.95;40.65;;;18.90;79.70;;;;;;4828512;29;20088;-72
2023/05/08 16:02:27;;;;;;;46.33;38.15;;;19.00;79.70;;;;;;4828215;29;20523;-72
2023/05/08 16:04:53;;;;;;;48.42;38.33;;;18.90;79.70;;;;;;4828350;29;20081;-72
2023/05/08 16:07:18;;;;;;;48.45;39.08;;;18.90;79.90;;;;;;4828373;29;20512;-71
2023/05/08 16:09:44;;;;;;;45.60;36.92;;;18.90;80.10;;;;;;4827836;29;20054;-72
2023/05/08 16:12:10;;;;;;;56.88;37.30;;;18.90;80.20;;;;;;4812494;29;20054;-71
2023/05/08 16:14:36;;;;;;;57.85;39.40;;;18.90;80.10;;;;;;4828264;29;20053;-72
2023/05/08 16:17:02;;;;;;;51.90;37.17;;;18.90;80.10;;;;;;4828197;29;20402;-71
2023/05/08 16:19:28;;;;;;;61.88;38.00;;;18.90;80.10;;;;;;4827863;29;20058;-71
2023/05/08 16:21:54;;;;;;;55.20;37.88;;;18.90;80.20;;;;;;4828307;29;20047;-72
2023/05/08 16:24:19;;;;;;;58.83;37.60;;;18.90;80.20;;;;;;4827971;29;20056;-71
2023/05/08 16:26:45;;;;;;;54.08;38.25;;;18.90;80.20;;;;;;4828224;29;20054;-72
2023/05/08 16:29:11;;;;;;;51.28;38.67;;;18.90;80.20;;;;;;4828106;29;20370;-72
2023/05/08 16:31:36;;;;;;;51.78;37.63;;;18.90;80.70;;;;;;4827939;29;20050;-72
2023/05/08 16:34:02;;;;;;;51.38;39.67;;;18.90;80.10;;;;;;4827741;29;20058;-72
2023/05/08 16:36:28;;;;;;;51.75;40.25;;;18.90;80.10;;;;;;4827513;29;20061;-72
2023/05/08 16:38:54;;;;;;;51.75;37.75;;;18.90;80.20;;;;;;4822509;29;20126;-73
2023/05/08 16:41:20;;;;;;;64.55;39.70;;;18.90;80.00;;;;;;4825625;29;20134;-73
2023/05/08 16:43:46;;;;;;;77.95;41.78;;;18.90;80.00;;;;;;4827821;29;20085;-72
2023/05/08 16:46:11;;;;;;;64.78;39.60;;;18.90;80.10;;;;;;4827769;29;20415;-72
2023/05/08 16:48:37;;;;;;;60.28;37.78;;;18.90;80.00;;;;;;4821798;29;20141;-72
2023/05/08 16:51:03;;;;;;;58.13;37.15;;;18.90;80.00;;;;;;4827476;29;20054;-72